1991 SINA (1990327S07175)


On this page: IBTrACS data - Map and Plots - Positions - Intensities - Original source data

Summary

Start Nov 23
End Dec 4
Basin SP
LMI 125 kt
Sources jtwc_sh
wellington
neumann
In WMO? Yes
Previous storm 1990 MISSING (NI)
Previous in basin 1990 RAE (SP)
Concurrent storms 1990 PAGE (WP)
1990 OWEN (EP)
1991 SINA (SP)
1991 A29091 (SI)
Next in basin Missing
Next storm 1991 A29091 (SI)

top of page IBTrACS Data: File Access

No storm imagery available

top of page Plots:

Map of storm track will not appear if FTP is down
Time series of cyclone Maximum Sustained Wind will not appear if FTP is down
Time series of cyclone Minimum Central Pressure will not appear if FTP is down

top of page Track Data:Position

jtwc_sh wellington neumann
Date Lat Lon Lat Lon Lat Lon
1990-11-23 06:00:00 -7.0 174.6 -7.0 174.6
1990-11-23 12:00:00 -7.5 174.7 -7.5 174.7
1990-11-23 18:00:00 -8.1 174.8 -8.1 174.8
1990-11-24 00:00:00 -8.8 174.6 -8.8 174.6
1990-11-24 06:00:00 -9.6 174.4 -9.6 174.4
1990-11-24 12:00:00 -10.3 174.0 -10.0 174.5 -10.3 174.0
1990-11-24 18:00:00 -10.7 173.4 -10.3 173.8 -10.7 173.4
1990-11-25 00:00:00 -11.0 173.2 -10.6 173.2 -11.0 173.2
1990-11-25 06:00:00 -11.6 173.0 -10.4 172.7 -11.6 173.0
1990-11-25 12:00:00 -12.1 173.0 -11.1 173.3 -12.1 173.0
1990-11-25 18:00:00 -12.7 173.0 -12.4 173.3 -12.7 173.0
1990-11-26 00:00:00 -13.4 173.0 -13.6 173.4 -13.4 173.0
1990-11-26 06:00:00 -14.2 173.4 -14.4 173.6 -14.2 173.4
1990-11-26 12:00:00 -15.1 173.8 -15.0 173.9 -15.1 173.8
1990-11-26 18:00:00 -15.9 174.3 -15.8 174.4 -15.9 174.3
1990-11-27 00:00:00 -16.6 174.8 -16.7 174.8 -16.6 174.8
1990-11-27 06:00:00 -17.3 175.6 -17.5 175.6 -17.3 175.6
1990-11-27 12:00:00 -18.1 176.7 -18.1 176.7 -18.1 176.7
1990-11-27 18:00:00 -18.5 177.9 -18.5 177.9 -18.5 177.9
1990-11-28 00:00:00 -18.9 179.2 -18.6 179.2 -18.9 179.2
1990-11-28 06:00:00 -19.3 -179.5 -19.0 180.5 -19.3 -179.5
1990-11-28 12:00:00 -19.7 -178.1 -19.6 181.8 -19.7 -178.1
1990-11-28 18:00:00 -20.2 -176.8 -20.3 183.0 -20.2 -176.8
1990-11-29 00:00:00 -20.6 -175.4 -20.6 184.4 -20.6 -175.4
1990-11-29 06:00:00 -20.7 -174.1 -20.7 185.9 -20.7 -174.1
jtwc_sh wellington neumann
1990-11-29 12:00:00 -20.7 -172.7 -20.7 187.3 -20.7 -172.7
1990-11-29 18:00:00 -20.7 189.0 -20.7 -171.0
1990-11-30 00:00:00 -20.7 190.5 -20.7 -169.5
1990-11-30 06:00:00 -20.8 193.3 -20.8 -166.7
1990-11-30 12:00:00 -21.2 196.0 -21.2 -164.0
1990-11-30 18:00:00 -23.5 198.5 -23.5 -161.5
1990-12-01 00:00:00 -25.4 200.5 -25.4 -159.5
1990-12-01 06:00:00 -27.1 202.5 -27.1 -157.5
1990-12-01 12:00:00 -28.7 204.2 -28.7 -155.8
1990-12-01 18:00:00 -31.5 206.8 -31.5 -153.2
1990-12-02 00:00:00 -34.0 209.0 -34.0 -151.0
1990-12-02 06:00:00 -35.3 211.2 -35.3 -148.8
1990-12-02 12:00:00 -36.5 213.4 -36.5 -146.6
1990-12-02 18:00:00 -37.9 215.8 -37.5 -144.2
1990-12-03 00:00:00 -39.0 217.5 -39.0 -142.5
1990-12-03 06:00:00 -40.5 218.9 -42.5 -139.5
1990-12-03 12:00:00 -42.5 220.5 -41.7 -134.0
1990-12-03 18:00:00 -44.7 223.0 -41.0 -128.0
1990-12-04 00:00:00 -47.0 226.0
1990-12-04 06:00:00 -49.0 228.8
1990-12-04 12:00:00 -51.0 232.0
1990-12-04 18:00:00 -53.0 236.0

top of pageTrack Data:Intensity

jtwc_sh wellington neumann
Date Wind Pres Wind Pres Wind Pres
1990-11-23 06:00:00 20. 20.
1990-11-23 12:00:00 20. 20.
1990-11-23 18:00:00 25. 25.
1990-11-24 00:00:00 25. 25.
1990-11-24 06:00:00 25. 25.
1990-11-24 12:00:00 30. 30. 997. 30.
1990-11-24 18:00:00 30. 35. 995. 30.
1990-11-25 00:00:00 35. 40. 990. 35.
1990-11-25 06:00:00 40. 40. 990. 40.
1990-11-25 12:00:00 45. 45. 987. 45.
1990-11-25 18:00:00 55. 55. 980. 55.
1990-11-26 00:00:00 65. 65. 970. 65.
1990-11-26 06:00:00 85. 70. 965. 85.
1990-11-26 12:00:00 100. 70. 965. 100.
1990-11-26 18:00:00 115. 75. 960. 115.
1990-11-27 00:00:00 125. 75. 960. 125.
1990-11-27 06:00:00 125. 75. 960. 125.
1990-11-27 12:00:00 125. 75. 960. 125.
1990-11-27 18:00:00 115. 70. 965. 115.
1990-11-28 00:00:00 110. 70. 965. 110.
1990-11-28 06:00:00 105. 65. 970. 105.
1990-11-28 12:00:00 100. 65. 970. 100.
1990-11-28 18:00:00 90. 65. 970. 90.
1990-11-29 00:00:00 85. 60. 975. 85.
1990-11-29 06:00:00 75. 60. 975. 75.
jtwc_sh wellington neumann
1990-11-29 12:00:00 65. 55. 980. 65.
1990-11-29 18:00:00 50. 985. 60.
1990-11-30 00:00:00 50. 985. 55.
1990-11-30 06:00:00 50. 985. 50.
1990-11-30 12:00:00 50. 985. 45.
1990-11-30 18:00:00 50. 985. 40.
1990-12-01 00:00:00 40. 988. 40.
1990-12-01 06:00:00 40. 988. 40.
1990-12-01 12:00:00 40. 988. 40.
1990-12-01 18:00:00 40. 988. 35.
1990-12-02 00:00:00 40. 988. 35.
1990-12-02 06:00:00 45. 987. 35.
1990-12-02 12:00:00 50. 983. 35.
1990-12-02 18:00:00 50. 983. 35.
1990-12-03 00:00:00 50. 983. 30.
1990-12-03 06:00:00 50. 983. 30.
1990-12-03 12:00:00 50. 983. 30.
1990-12-03 18:00:00 50. 983. 30.
1990-12-04 00:00:00 50. 982.
1990-12-04 06:00:00 50. 982.
1990-12-04 12:00:00 50. 982.
1990-12-04 18:00:00 50. 978.

top of page Links to source data

Source Source file Format
jtwc_sh bsh031991.txt ATCF
wellington TC_BT_1967_2006.csv:Line=3698:SINA Text table
neumann tracks.sh:Storm=901:SINA:BSH031991:JTWC&NZeal19008 HURDAT